createdAt,value
2023-02-28T00:01:35.956Z,103235.44
2023-02-28T00:04:05.000Z,103238.97
2023-02-28T00:06:32.459Z,103239.75
2023-02-28T00:08:59.891Z,103239.63
2023-02-28T00:11:29.530Z,103249.06
2023-02-28T00:13:56.990Z,103239.47
2023-02-28T00:16:25.614Z,103245.47
2023-02-28T00:18:53.276Z,103242.84
2023-02-28T00:21:21.313Z,103245.47
2023-02-28T00:23:49.309Z,103239.47
2023-02-28T00:26:17.043Z,103241.25
2023-02-28T00:28:46.618Z,103237.03
2023-02-28T00:31:14.443Z,103231.69
2023-02-28T00:33:42.099Z,103230.91
2023-02-28T00:36:12.197Z,103226.59
2023-02-28T00:38:42.336Z,103217.88
2023-02-28T00:41:10.322Z,103214.34
2023-02-28T00:43:40.821Z,103219.47
2023-02-28T00:46:08.838Z,103217.75
2023-02-28T00:48:36.993Z,103219.47
2023-02-28T00:51:05.932Z,103222.09
2023-02-28T00:53:35.971Z,103219.38
2023-02-28T00:56:05.488Z,103215.75
2023-02-28T00:58:32.968Z,103225.38
2023-02-28T01:01:01.707Z,103222.69
2023-02-28T01:03:29.165Z,103215.75
2023-02-28T01:05:56.469Z,103213.03
2023-02-28T01:08:24.293Z,103220.84
2023-02-28T01:10:52.529Z,103214.75
2023-02-28T01:13:20.940Z,103217.34
2023-02-28T01:15:56.796Z,103226.91
2023-02-28T01:18:24.152Z,103211.31
2023-02-28T01:20:53.472Z,103218.34
2023-02-28T01:23:22.871Z,103204.50
2023-02-28T01:25:51.888Z,103201.97
2023-02-28T01:28:19.126Z,103209.03
2023-02-28T01:30:52.079Z,103210.75
2023-02-28T01:33:19.636Z,103195.09
2023-02-28T01:35:47.017Z,103201.88
2023-02-28T01:38:22.031Z,103196.59
2023-02-28T01:40:51.360Z,103201.69
2023-02-28T01:43:34.217Z,103193.03
2023-02-28T01:46:01.814Z,103200.09
2023-02-28T01:48:37.953Z,103185.94
2023-02-28T01:51:12.962Z,103191.16
2023-02-28T01:53:45.878Z,103184.09
2023-02-28T01:56:21.425Z,103186.72
2023-02-28T01:58:52.364Z,103187.63
2023-02-28T02:01:24.353Z,103188.44
2023-02-28T02:03:58.677Z,103178.81
2023-02-28T02:06:31.443Z,103191.84
2023-02-28T02:08:58.797Z,103183.22
2023-02-28T02:11:26.832Z,103192.66
2023-02-28T02:14:14.478Z,103182.03
2023-02-28T02:17:02.328Z,103173.97
2023-02-28T02:19:51.399Z,103171.16
2023-02-28T02:22:56.422Z,103178.88
2023-02-28T02:25:45.682Z,103187.41
2023-02-28T02:28:35.015Z,103186.41
2023-02-28T02:31:22.981Z,103181.19
2023-02-28T02:34:18.331Z,103176.97
2023-02-28T02:37:04.447Z,103177.69
2023-02-28T02:39:51.290Z,103177.78
2023-02-28T02:42:51.812Z,103176.84
2023-02-28T02:45:29.542Z,103172.56
2023-02-28T02:48:00.144Z,103181.97
2023-02-28T02:50:34.835Z,103176.56
2023-02-28T02:53:05.770Z,103186.66
2023-02-28T02:55:40.770Z,103176.72
2023-02-28T02:58:19.195Z,103177.31
2023-02-28T03:00:54.270Z,103188.34
2023-02-28T03:03:29.920Z,103188.94
2023-02-28T03:06:00.204Z,103184.44
2023-02-28T03:08:28.944Z,103180.72
2023-02-28T03:11:13.384Z,103184.09
2023-02-28T03:14:01.185Z,103188.19
2023-02-28T03:16:50.950Z,103186.19
2023-02-28T03:19:52.995Z,103187.56
2023-02-28T03:22:52.172Z,103190.03
2023-02-28T03:25:47.020Z,103188.03
2023-02-28T03:28:23.803Z,103180.03
2023-02-28T03:30:55.619Z,103179.91
2023-02-28T03:33:31.164Z,103187.63
2023-02-28T03:36:03.924Z,103180.50
2023-02-28T03:38:54.092Z,103180.38
2023-02-28T03:41:28.399Z,103190.81
2023-02-28T03:44:06.859Z,103189.09
2023-02-28T03:46:40.752Z,103196.91
2023-02-28T03:49:35.490Z,103195.00
2023-02-28T03:52:07.267Z,103194.91
2023-02-28T03:54:41.413Z,103190.47
2023-02-28T03:57:17.536Z,103197.28
2023-02-28T03:59:51.144Z,103199.09
2023-02-28T04:02:19.697Z,103184.94
2023-02-28T04:04:51.196Z,103198.75
2023-02-28T04:07:18.998Z,103193.47
2023-02-28T04:09:46.605Z,103195.13
2023-02-28T04:12:14.034Z,103198.56
2023-02-28T04:14:41.288Z,103190.63
2023-02-28T04:17:08.632Z,103194.81
2023-02-28T04:19:36.052Z,103197.44
2023-02-28T04:22:03.369Z,103200.81
2023-02-28T04:24:30.777Z,103202.53
2023-02-28T04:26:59.442Z,103203.34
2023-02-28T04:29:29.327Z,103205.94
2023-02-28T04:31:59.329Z,103201.53
2023-02-28T04:34:31.623Z,103193.69
2023-02-28T04:37:12.301Z,103201.53
2023-02-28T04:39:40.627Z,103201.63
2023-02-28T04:42:07.926Z,103199.03
2023-02-28T04:44:35.343Z,103192.00
2023-02-28T04:47:02.623Z,103197.09
2023-02-28T04:49:29.953Z,103196.31
2023-02-28T04:51:57.234Z,103195.41
2023-02-28T04:54:24.563Z,103198.91
2023-02-28T04:56:51.883Z,103198.91
2023-02-28T04:59:19.256Z,103189.28
2023-02-28T05:01:48.467Z,103204.13
2023-02-28T05:04:15.963Z,103203.22
2023-02-28T05:06:43.375Z,103202.31
2023-02-28T05:09:13.942Z,103191.88
2023-02-28T05:11:42.839Z,103197.09
2023-02-28T05:14:15.120Z,103192.69
2023-02-28T05:16:43.054Z,103203.91
2023-02-28T05:19:10.731Z,103191.78
2023-02-28T05:21:42.979Z,103193.41
2023-02-28T05:24:12.574Z,103199.50
2023-02-28T05:26:43.251Z,103197.69
2023-02-28T05:29:11.970Z,103207.31
2023-02-28T05:31:39.792Z,103200.28
2023-02-28T05:34:07.326Z,103208.22
2023-02-28T05:36:38.682Z,103207.44
2023-02-28T05:39:13.707Z,103213.41
2023-02-28T05:41:43.124Z,103215.13
2023-02-28T05:44:11.614Z,103213.31
2023-02-28T05:46:39.873Z,103222.13
2023-02-28T05:49:07.250Z,103229.94
2023-02-28T05:51:41.028Z,103220.34
2023-02-28T05:54:08.681Z,103222.13
2023-02-28T05:56:38.776Z,103221.25
2023-02-28T05:59:06.000Z,103220.47
2023-02-28T06:01:39.959Z,103225.56
2023-02-28T06:04:19.445Z,103228.75
2023-02-28T06:06:50.872Z,103228.50
2023-02-28T06:09:19.024Z,103226.47
2023-02-28T06:11:46.331Z,103229.88
2023-02-28T06:14:18.689Z,103225.34
2023-02-28T06:16:46.345Z,103232.28
2023-02-28T06:19:13.713Z,103233.84
2023-02-28T06:21:41.143Z,103235.53
2023-02-28T06:24:09.061Z,103244.16
2023-02-28T06:26:36.375Z,103241.44
2023-02-28T06:29:04.037Z,103241.31
2023-02-28T06:31:31.753Z,103237.59
2023-02-28T06:33:59.372Z,103240.88
2023-02-28T06:36:31.763Z,103244.19
2023-02-28T06:38:59.195Z,103244.06
2023-02-28T06:41:29.587Z,103250.84
2023-02-28T06:43:57.437Z,103260.25
2023-02-28T06:46:24.949Z,103260.91
2023-02-28T06:48:52.271Z,103263.41
2023-02-28T06:51:23.384Z,103271.13
2023-02-28T06:53:52.314Z,103271.00
2023-02-28T06:56:21.537Z,103270.19
2023-02-28T06:58:51.105Z,103274.38
2023-02-28T07:01:20.054Z,103269.28
2023-02-28T07:03:48.189Z,103272.78
2023-02-28T07:06:15.699Z,103263.19
2023-02-28T07:08:43.069Z,103271.13
2023-02-28T07:11:10.458Z,103275.41
2023-02-28T07:13:38.436Z,103284.03
2023-02-28T07:16:07.776Z,103289.88
2023-02-28T07:18:35.376Z,103297.03
2023-02-28T07:21:04.657Z,103297.16
2023-02-28T07:23:32.307Z,103291.16
2023-02-28T07:26:00.070Z,103291.03
2023-02-28T07:28:27.637Z,103291.03
2023-02-28T07:30:54.961Z,103296.34
2023-02-28T07:33:22.323Z,103291.38
2023-02-28T07:35:49.580Z,103287.06
2023-02-28T07:38:16.889Z,103285.94
2023-02-28T07:40:44.464Z,103292.84
2023-02-28T07:43:12.024Z,103299.97
2023-02-28T07:45:40.138Z,103304.72
2023-02-28T07:48:07.655Z,103300.66
2023-02-28T07:50:35.582Z,103296.59
2023-02-28T07:53:03.037Z,103300.09
2023-02-28T07:55:30.279Z,103295.00
2023-02-28T07:57:58.448Z,103300.56
2023-02-28T08:00:25.890Z,103305.53
2023-02-28T08:02:53.271Z,103305.19
2023-02-28T08:05:22.210Z,103302.25
2023-02-28T08:07:51.330Z,103310.03
2023-02-28T08:10:18.691Z,103311.59
2023-02-28T08:12:46.058Z,103300.81
2023-02-28T08:15:13.312Z,103305.00
2023-02-28T08:17:40.896Z,103303.03
2023-02-28T08:20:10.028Z,103298.13
2023-02-28T08:22:37.363Z,103305.63
2023-02-28T08:25:05.136Z,103300.97
2023-02-28T08:27:32.452Z,103305.25
2023-02-28T08:29:59.814Z,103299.16
2023-02-28T08:32:30.051Z,103309.31
2023-02-28T08:34:57.815Z,103306.63
2023-02-28T08:37:25.498Z,103305.22
2023-02-28T08:39:56.031Z,103311.75
2023-02-28T08:42:24.725Z,103302.72
2023-02-28T08:44:52.176Z,103310.31
2023-02-28T08:47:20.216Z,103307.63
2023-02-28T08:49:47.740Z,103304.88
2023-02-28T08:52:15.215Z,103310.56
2023-02-28T08:54:42.720Z,103303.94
2023-02-28T08:57:10.146Z,103304.38
2023-02-28T08:59:37.440Z,103304.03
2023-02-28T09:02:04.729Z,103304.19
2023-02-28T09:04:32.144Z,103310.72
2023-02-28T09:06:59.474Z,103309.44
2023-02-28T09:09:26.795Z,103310.06
2023-02-28T09:11:56.710Z,103317.03
2023-02-28T09:14:23.930Z,103313.97
2023-02-28T09:16:51.435Z,103316.16
2023-02-28T09:19:19.166Z,103316.34
2023-02-28T09:21:46.478Z,103306.22
2023-02-28T09:24:16.158Z,103309.28
2023-02-28T09:26:56.291Z,103315.94
2023-02-28T09:29:31.682Z,103313.97
2023-02-28T09:32:00.111Z,103304.03
2023-02-28T09:34:28.848Z,103301.84
2023-02-28T09:36:56.585Z,103306.00
2023-02-28T09:39:24.423Z,103293.91
2023-02-28T09:41:54.194Z,103301.91
2023-02-28T09:44:26.005Z,103312.31
2023-02-28T09:47:01.075Z,103307.66
2023-02-28T09:49:35.949Z,103312.75
2023-02-28T09:52:10.103Z,103318.59
2023-02-28T09:54:38.303Z,103311.34
2023-02-28T09:57:05.730Z,103324.31
2023-02-28T09:59:45.475Z,103324.91
2023-02-28T10:02:37.728Z,103323.91
2023-02-28T10:05:13.638Z,103338.00
2023-02-28T10:08:22.651Z,103327.84
2023-02-28T10:10:54.523Z,103327.03
2023-02-28T10:13:37.612Z,103320.88
2023-02-28T10:16:29.752Z,103326.94
2023-02-28T10:19:11.190Z,103325.22
2023-02-28T10:21:46.340Z,103316.78
2023-02-28T10:24:41.616Z,103324.00
2023-02-28T10:27:26.548Z,103326.81
2023-02-28T10:29:56.064Z,103318.06
2023-02-28T10:32:28.931Z,103334.78
2023-02-28T10:35:06.152Z,103334.16
2023-02-28T10:37:39.078Z,103338.50
2023-02-28T10:40:25.798Z,103329.06
2023-02-28T10:42:57.716Z,103328.66
2023-02-28T10:45:26.414Z,103328.66
2023-02-28T10:48:05.912Z,103328.38
2023-02-28T10:50:42.201Z,103332.22
2023-02-28T10:53:26.075Z,103337.81
2023-02-28T10:56:03.436Z,103341.66
2023-02-28T10:58:57.348Z,103333.88
2023-02-28T11:01:41.532Z,103333.59
2023-02-28T11:04:37.644Z,103327.50
2023-02-28T11:07:22.995Z,103325.69
2023-02-28T11:09:57.855Z,103321.91
2023-02-28T11:12:46.863Z,103320.03
2023-02-28T11:15:28.320Z,103311.44
2023-02-28T11:18:05.606Z,103315.41
2023-02-28T11:20:35.214Z,103309.53
2023-02-28T11:23:05.506Z,103310.91
2023-02-28T11:25:39.505Z,103303.38
2023-02-28T11:28:23.925Z,103311.22
2023-02-28T11:31:17.329Z,103310.88
2023-02-28T11:33:56.713Z,103308.41
2023-02-28T11:36:29.312Z,103305.13
2023-02-28T11:39:03.758Z,103299.34
2023-02-28T11:42:06.305Z,103307.69
2023-02-28T11:44:52.702Z,103302.38
2023-02-28T11:47:57.443Z,103305.81
2023-02-28T11:50:46.622Z,103306.91
2023-02-28T11:53:36.796Z,103314.31
2023-02-28T11:56:12.217Z,103306.19
2023-02-28T11:58:52.436Z,103303.13
2023-02-28T12:01:28.660Z,103303.78
2023-02-28T12:04:13.078Z,103302.84
2023-02-28T12:07:03.928Z,103306.09
2023-02-28T12:09:46.474Z,103303.22
2023-02-28T12:12:46.372Z,103297.22
2023-02-28T12:15:24.964Z,103285.22
2023-02-28T12:18:33.373Z,103286.50
2023-02-28T12:21:27.311Z,103288.50
2023-02-28T12:24:17.134Z,103278.66
2023-02-28T12:26:48.711Z,103282.53
2023-02-28T12:29:20.441Z,103276.75
2023-02-28T12:31:54.680Z,103269.72
2023-02-28T12:34:42.679Z,103272.06
2023-02-28T12:37:34.775Z,103269.63
2023-02-28T12:40:10.206Z,103257.97
2023-02-28T12:42:48.846Z,103263.75
2023-02-28T12:45:22.138Z,103259.25
2023-02-28T12:47:58.636Z,103254.25
2023-02-28T12:50:27.564Z,103246.59
2023-02-28T12:53:03.993Z,103242.97
2023-02-28T12:56:13.992Z,103249.09
2023-02-28T12:58:46.551Z,103239.53
2023-02-28T13:01:29.650Z,103229.38
2023-02-28T13:04:09.272Z,103234.06
2023-02-28T13:06:46.281Z,103226.75
2023-02-28T13:09:16.849Z,103233.41
2023-02-28T13:11:54.313Z,103227.88
2023-02-28T13:14:36.695Z,103224.59
2023-02-28T13:17:13.346Z,103218.88
2023-02-28T13:19:40.498Z,103217.16
2023-02-28T13:22:21.877Z,103222.16
2023-02-28T13:24:58.590Z,103218.56
2023-02-28T13:27:42.844Z,103216.06
2023-02-28T13:30:51.388Z,103211.72
2023-02-28T13:33:26.952Z,103212.56
2023-02-28T13:36:19.982Z,103214.34
2023-02-28T13:38:56.453Z,103211.28
2023-02-28T13:41:30.373Z,103218.53
2023-02-28T13:44:06.389Z,103211.88
2023-02-28T13:46:37.018Z,103208.81
2023-02-28T13:49:23.089Z,103209.53
2023-02-28T13:52:15.186Z,103205.13
2023-02-28T13:55:01.951Z,103205.91
2023-02-28T13:57:41.427Z,103210.81
2023-02-28T14:00:35.840Z,103215.88
2023-02-28T14:03:16.108Z,103212.16
2023-02-28T14:05:43.571Z,103213.97
2023-02-28T14:08:30.109Z,103207.94
2023-02-28T14:11:07.713Z,103215.97
2023-02-28T14:13:45.868Z,103204.78
2023-02-28T14:16:30.701Z,103212.78
2023-02-28T14:19:01.930Z,103203.22
2023-02-28T14:21:33.826Z,103199.78
2023-02-28T14:24:10.332Z,103200.69
2023-02-28T14:27:12.530Z,103199.03
2023-02-28T14:29:51.576Z,103201.06
2023-02-28T14:32:50.614Z,103204.66
2023-02-28T14:35:45.564Z,103207.34
2023-02-28T14:38:39.752Z,103198.78
2023-02-28T14:41:17.134Z,103205.91
2023-02-28T14:43:53.675Z,103205.91
2023-02-28T14:46:22.191Z,103203.13
2023-02-28T14:48:51.346Z,103209.81
2023-02-28T14:51:24.429Z,103204.94
2023-02-28T14:54:00.491Z,103200.88
2023-02-28T14:56:35.055Z,103204.94
2023-02-28T14:59:02.340Z,103203.69
2023-02-28T15:01:30.149Z,103198.19
2023-02-28T15:04:07.716Z,103198.91
2023-02-28T15:06:35.144Z,103201.28
2023-02-28T15:09:17.455Z,103204.44
2023-02-28T15:11:51.045Z,103202.41
2023-02-28T15:14:22.066Z,103204.88
2023-02-28T15:16:59.045Z,103197.66
2023-02-28T15:19:31.380Z,103195.84
2023-02-28T15:22:06.371Z,103186.09
2023-02-28T15:24:44.714Z,103189.53
2023-02-28T15:27:22.139Z,103191.16
2023-02-28T15:29:53.027Z,103190.16
2023-02-28T15:32:36.064Z,103193.56
2023-02-28T15:35:21.747Z,103194.25
2023-02-28T15:37:54.169Z,103197.63
2023-02-28T15:40:28.710Z,103197.50
2023-02-28T15:43:19.672Z,103191.38
2023-02-28T15:45:50.015Z,103189.56
2023-02-28T15:48:39.260Z,103189.38
2023-02-28T15:51:06.641Z,103183.88
2023-02-28T15:53:38.879Z,103182.00
2023-02-28T15:56:23.463Z,103189.66
2023-02-28T15:58:51.150Z,103196.50
2023-02-28T16:01:31.835Z,103198.13
2023-02-28T16:04:01.972Z,103190.81
2023-02-28T16:06:43.242Z,103203.69
2023-02-28T16:09:16.109Z,103193.84
2023-02-28T16:11:47.005Z,103189.34
2023-02-28T16:14:18.327Z,103192.47
2023-02-28T16:16:48.760Z,103191.50
2023-02-28T16:19:16.440Z,103194.91
2023-02-28T16:21:43.944Z,103194.69
2023-02-28T16:24:11.270Z,103190.19
2023-02-28T16:26:40.988Z,103190.81
2023-02-28T16:29:10.540Z,103193.13
2023-02-28T16:31:39.350Z,103195.47
2023-02-28T16:34:06.719Z,103190.88
2023-02-28T16:36:34.348Z,103197.50
2023-02-28T16:39:03.644Z,103196.31
2023-02-28T16:41:31.309Z,103195.22
2023-02-28T16:44:01.327Z,103203.59
2023-02-28T16:46:35.600Z,103205.09
2023-02-28T16:49:03.370Z,103206.41
2023-02-28T16:51:33.350Z,103208.81
2023-02-28T16:54:01.478Z,103208.53
2023-02-28T16:56:29.195Z,103213.47
2023-02-28T16:59:01.720Z,103212.25
2023-02-28T17:01:30.222Z,103211.94
2023-02-28T17:03:57.803Z,103217.78
2023-02-28T17:06:31.900Z,103214.16
2023-02-28T17:09:00.314Z,103221.59
2023-02-28T17:11:29.361Z,103222.22
2023-02-28T17:13:57.205Z,103225.50
2023-02-28T17:16:29.881Z,103218.16
2023-02-28T17:19:12.039Z,103234.44
2023-02-28T17:21:42.501Z,103229.72
2023-02-28T17:24:16.464Z,103240.66
2023-02-28T17:26:46.420Z,103234.91
2023-02-28T17:29:22.468Z,103243.22
2023-02-28T17:31:49.831Z,103248.94
2023-02-28T17:34:19.360Z,103250.25
2023-02-28T17:36:51.976Z,103248.31
2023-02-28T17:39:27.016Z,103248.13
2023-02-28T17:41:56.277Z,103251.41
2023-02-28T17:44:25.039Z,103254.59
2023-02-28T17:46:54.433Z,103252.69
2023-02-28T17:49:22.438Z,103255.09
2023-02-28T17:51:51.633Z,103248.84
2023-02-28T17:54:19.274Z,103252.97
2023-02-28T17:56:47.116Z,103252.84
2023-02-28T17:59:14.631Z,103243.13
2023-02-28T18:01:41.985Z,103248.22
2023-02-28T18:04:09.317Z,103252.31
2023-02-28T18:06:47.970Z,103248.69
2023-02-28T18:09:16.668Z,103252.91
2023-02-28T18:11:49.323Z,103249.41
2023-02-28T18:14:18.678Z,103257.09
2023-02-28T18:16:46.487Z,103254.28
2023-02-28T18:19:17.958Z,103247.16
2023-02-28T18:21:47.339Z,103253.06
2023-02-28T18:24:15.652Z,103251.25
2023-02-28T18:26:44.268Z,103251.13
2023-02-28T18:29:19.400Z,103244.00
2023-02-28T18:31:46.991Z,103248.22
2023-02-28T18:34:15.295Z,103247.22
2023-02-28T18:36:43.314Z,103245.25
2023-02-28T18:39:12.133Z,103251.41
2023-02-28T18:41:40.601Z,103246.31
2023-02-28T18:44:19.068Z,103254.00
2023-02-28T18:46:48.550Z,103253.00
2023-02-28T18:49:16.424Z,103246.88
2023-02-28T18:51:46.837Z,103249.38
2023-02-28T18:54:15.996Z,103248.47
2023-02-28T18:56:43.901Z,103257.22
2023-02-28T18:59:11.777Z,103255.50
2023-02-28T19:01:40.268Z,103255.38
2023-02-28T19:04:07.754Z,103257.88
2023-02-28T19:06:40.773Z,103260.94
2023-02-28T19:09:08.295Z,103260.63
2023-02-28T19:11:36.659Z,103257.91
2023-02-28T19:14:04.468Z,103262.22
2023-02-28T19:16:32.266Z,103256.31
2023-02-28T19:18:59.759Z,103260.75
2023-02-28T19:21:30.119Z,103252.81
2023-02-28T19:23:57.574Z,103256.19
2023-02-28T19:26:26.706Z,103248.28
2023-02-28T19:28:54.526Z,103255.19
2023-02-28T19:31:24.655Z,103248.84
2023-02-28T19:33:53.327Z,103258.38
2023-02-28T19:36:21.324Z,103255.66
2023-02-28T19:38:49.208Z,103249.44
2023-02-28T19:41:17.836Z,103253.50
2023-02-28T19:43:45.520Z,103248.88
2023-02-28T19:46:14.769Z,103251.16
2023-02-28T19:48:44.757Z,103257.75
2023-02-28T19:51:14.336Z,103257.31
2023-02-28T19:53:42.860Z,103258.66
2023-02-28T19:56:11.134Z,103261.03
2023-02-28T19:58:39.824Z,103266.81
2023-02-28T20:01:13.058Z,103263.19
2023-02-28T20:03:41.305Z,103266.56
2023-02-28T20:06:13.800Z,103264.53
2023-02-28T20:08:41.995Z,103269.53
2023-02-28T20:11:15.461Z,103270.88
2023-02-28T20:13:43.837Z,103266.38
2023-02-28T20:16:12.890Z,103265.22
2023-02-28T20:18:41.418Z,103274.63
2023-02-28T20:21:09.999Z,103275.97
2023-02-28T20:23:41.849Z,103270.53
2023-02-28T20:26:10.579Z,103272.09
2023-02-28T20:28:39.965Z,103267.47
2023-02-28T20:31:18.797Z,103272.34
2023-02-28T20:33:47.101Z,103271.09
2023-02-28T20:36:15.796Z,103280.34
2023-02-28T20:38:43.407Z,103274.78
2023-02-28T20:41:11.629Z,103274.69
2023-02-28T20:43:40.548Z,103284.84
2023-02-28T20:46:08.224Z,103278.75
2023-02-28T20:48:36.672Z,103282.13
2023-02-28T20:51:05.287Z,103280.97
2023-02-28T20:53:34.695Z,103284.13
2023-02-28T20:56:20.413Z,103279.38
2023-02-28T20:58:48.839Z,103272.91
2023-02-28T21:01:19.277Z,103282.97
2023-02-28T21:03:51.712Z,103281.56
2023-02-28T21:06:21.308Z,103284.72
2023-02-28T21:08:51.806Z,103289.72
2023-02-28T21:11:35.544Z,103291.03
2023-02-28T21:14:08.090Z,103290.00
2023-02-28T21:16:37.769Z,103291.47
2023-02-28T21:19:05.896Z,103293.81
2023-02-28T21:21:40.108Z,103291.00
2023-02-28T21:24:07.749Z,103292.31
2023-02-28T21:26:36.099Z,103286.09
2023-02-28T21:29:03.954Z,103282.59
2023-02-28T21:31:33.923Z,103282.59
2023-02-28T21:34:03.260Z,103284.16
2023-02-28T21:36:36.339Z,103279.63
2023-02-28T21:39:25.486Z,103277.69
2023-02-28T21:41:53.982Z,103282.50
2023-02-28T21:44:22.928Z,103279.69
2023-02-28T21:46:55.240Z,103284.50
2023-02-28T21:49:22.705Z,103292.19
2023-02-28T21:51:49.889Z,103295.44
2023-02-28T21:54:18.295Z,103296.09
2023-02-28T21:56:45.455Z,103299.34
2023-02-28T21:59:12.700Z,103300.03
2023-02-28T22:01:44.094Z,103295.50
2023-02-28T22:04:23.521Z,103295.91
2023-02-28T22:06:57.555Z,103285.25
2023-02-28T22:09:25.643Z,103294.50
2023-02-28T22:11:54.280Z,103293.25
2023-02-28T22:14:21.621Z,103292.06
2023-02-28T22:16:52.616Z,103305.56
2023-02-28T22:19:21.574Z,103303.63
2023-02-28T22:21:50.053Z,103299.88
2023-02-28T22:24:20.516Z,103307.31
2023-02-28T22:26:49.637Z,103307.94
2023-02-28T22:29:16.998Z,103311.88
2023-02-28T22:31:44.333Z,103304.59
2023-02-28T22:34:12.892Z,103310.31
2023-02-28T22:36:42.215Z,103322.13
2023-02-28T22:39:11.016Z,103315.00
2023-02-28T22:41:38.822Z,103319.81
2023-02-28T22:44:07.170Z,103319.69
2023-02-28T22:46:36.649Z,103315.03
2023-02-28T22:49:05.561Z,103315.81
2023-02-28T22:51:32.873Z,103312.31
2023-02-28T22:54:02.056Z,103304.53
2023-02-28T22:56:30.765Z,103304.38
2023-02-28T22:58:59.877Z,103307.75
2023-02-28T23:01:30.721Z,103304.13
2023-02-28T23:03:58.733Z,103314.50
2023-02-28T23:06:38.139Z,103306.72
2023-02-28T23:09:08.160Z,103305.81
2023-02-28T23:11:39.947Z,103300.50
2023-02-28T23:14:07.899Z,103308.03
2023-02-28T23:16:41.905Z,103302.72
2023-02-28T23:19:13.163Z,103305.94
2023-02-28T23:21:41.691Z,103306.75
2023-02-28T23:24:14.398Z,103297.91
2023-02-28T23:26:45.356Z,103298.44
2023-02-28T23:29:14.662Z,103299.22
2023-02-28T23:31:42.698Z,103307.78
2023-02-28T23:34:10.826Z,103310.25
2023-02-28T23:36:39.668Z,103312.44
2023-02-28T23:39:06.976Z,103313.84
2023-02-28T23:41:35.329Z,103304.00
2023-02-28T23:44:02.785Z,103308.16
2023-02-28T23:46:30.392Z,103303.63
2023-02-28T23:48:58.879Z,103306.84
2023-02-28T23:51:26.139Z,103311.94
2023-02-28T23:53:53.601Z,103299.59
2023-02-28T23:56:23.215Z,103302.84
2023-02-28T23:58:54.811Z,103303.50
